sensor_id;sensor_type;location;lat;lon;timestamp;temperature;humidity
13074;DHT22;6603;47.066;15.396;2023-02-15T00:00:23;0.70;99.90
13074;DHT22;6603;47.066;15.396;2023-02-15T00:02:49;0.80;99.90
13074;DHT22;6603;47.066;15.396;2023-02-15T00:05:15;0.80;99.90
13074;DHT22;6603;47.066;15.396;2023-02-15T00:07:41;0.80;99.90
13074;DHT22;6603;47.066;15.396;2023-02-15T00:10:08;0.90;99.90
13074;DHT22;6603;47.066;15.396;2023-02-15T00:12:34;0.90;99.90
13074;DHT22;6603;47.066;15.396;2023-02-15T00:15:00;0.90;99.90
13074;DHT22;6603;47.066;15.396;2023-02-15T00:17:29;0.90;99.90
13074;DHT22;6603;47.066;15.396;2023-02-15T00:19:55;1.00;99.90
13074;DHT22;6603;47.066;15.396;2023-02-15T00:22:21;1.00;99.90
13074;DHT22;6603;47.066;15.396;2023-02-15T00:24:47;1.00;99.90
13074;DHT22;6603;47.066;15.396;2023-02-15T00:27:13;1.00;99.90
13074;DHT22;6603;47.066;15.396;2023-02-15T00:29:39;1.10;99.90
13074;DHT22;6603;47.066;15.396;2023-02-15T00:32:05;1.20;99.90
13074;DHT22;6603;47.066;15.396;2023-02-15T00:34:31;1.10;99.90
13074;DHT22;6603;47.066;15.396;2023-02-15T00:36:57;1.10;99.90
13074;DHT22;6603;47.066;15.396;2023-02-15T00:39:23;1.00;99.90
13074;DHT22;6603;47.066;15.396;2023-02-15T00:41:50;1.00;99.90
13074;DHT22;6603;47.066;15.396;2023-02-15T00:44:16;1.20;99.90
13074;DHT22;6603;47.066;15.396;2023-02-15T00:46:42;1.10;99.90
13074;DHT22;6603;47.066;15.396;2023-02-15T00:49:08;1.10;99.90
13074;DHT22;6603;47.066;15.396;2023-02-15T00:51:34;1.20;99.90
13074;DHT22;6603;47.066;15.396;2023-02-15T00:54:00;1.20;99.90
13074;DHT22;6603;47.066;15.396;2023-02-15T00:56:26;1.20;99.90
13074;DHT22;6603;47.066;15.396;2023-02-15T00:58:54;1.20;99.90
13074;DHT22;6603;47.066;15.396;2023-02-15T01:01:21;1.30;99.90
13074;DHT22;6603;47.066;15.396;2023-02-15T01:03:47;1.30;99.90
13074;DHT22;6603;47.066;15.396;2023-02-15T01:06:15;1.20;99.90
13074;DHT22;6603;47.066;15.396;2023-02-15T01:08:41;1.30;99.90
13074;DHT22;6603;47.066;15.396;2023-02-15T01:11:11;1.30;99.90
13074;DHT22;6603;47.066;15.396;2023-02-15T01:13:38;1.40;99.90
13074;DHT22;6603;47.066;15.396;2023-02-15T01:16:05;1.40;99.90
13074;DHT22;6603;47.066;15.396;2023-02-15T01:18:32;1.40;99.90
13074;DHT22;6603;47.066;15.396;2023-02-15T01:20:58;1.30;99.90
13074;DHT22;6603;47.066;15.396;2023-02-15T01:23:24;1.40;99.90
13074;DHT22;6603;47.066;15.396;2023-02-15T01:25:50;1.40;99.90
13074;DHT22;6603;47.066;15.396;2023-02-15T01:28:16;1.50;99.90
13074;DHT22;6603;47.066;15.396;2023-02-15T01:30:42;1.60;99.90
13074;DHT22;6603;47.066;15.396;2023-02-15T01:33:09;1.50;99.90
13074;DHT22;6603;47.066;15.396;2023-02-15T01:35:46;1.60;99.90
13074;DHT22;6603;47.066;15.396;2023-02-15T01:38:13;1.50;99.90
13074;DHT22;6603;47.066;15.396;2023-02-15T01:40:39;1.50;99.90
13074;DHT22;6603;47.066;15.396;2023-02-15T01:43:10;1.60;99.90
13074;DHT22;6603;47.066;15.396;2023-02-15T01:45:36;1.60;99.90
13074;DHT22;6603;47.066;15.396;2023-02-15T01:48:24;1.60;99.90
13074;DHT22;6603;47.066;15.396;2023-02-15T01:50:56;1.50;99.90
13074;DHT22;6603;47.066;15.396;2023-02-15T01:53:37;1.50;99.90
13074;DHT22;6603;47.066;15.396;2023-02-15T01:56:11;1.60;99.90
13074;DHT22;6603;47.066;15.396;2023-02-15T01:58:38;1.50;99.90
13074;DHT22;6603;47.066;15.396;2023-02-15T02:01:07;1.50;99.90
13074;DHT22;6603;47.066;15.396;2023-02-15T02:06:45;1.50;99.90
13074;DHT22;6603;47.066;15.396;2023-02-15T02:09:12;1.60;99.90
13074;DHT22;6603;47.066;15.396;2023-02-15T02:11:39;1.50;99.90
13074;DHT22;6603;47.066;15.396;2023-02-15T02:14:06;1.60;99.90
13074;DHT22;6603;47.066;15.396;2023-02-15T02:39:06;1.60;99.90
13074;DHT22;6603;47.066;15.396;2023-02-15T02:47:29;1.60;99.90
13074;DHT22;6603;47.066;15.396;2023-02-15T02:50:03;1.60;99.90
13074;DHT22;6603;47.066;15.396;2023-02-15T02:52:39;1.60;99.90
13074;DHT22;6603;47.066;15.396;2023-02-15T02:55:14;1.60;99.90
13074;DHT22;6603;47.066;15.396;2023-02-15T02:57:57;1.60;99.90
13074;DHT22;6603;47.066;15.396;2023-02-15T03:00:25;1.60;99.90
13074;DHT22;6603;47.066;15.396;2023-02-15T03:02:59;1.60;99.90
13074;DHT22;6603;47.066;15.396;2023-02-15T03:05:31;1.70;99.90
13074;DHT22;6603;47.066;15.396;2023-02-15T03:08:01;1.70;99.90
13074;DHT22;6603;47.066;15.396;2023-02-15T03:10:32;1.70;99.90
13074;DHT22;6603;47.066;15.396;2023-02-15T03:13:00;1.70;99.90
13074;DHT22;6603;47.066;15.396;2023-02-15T03:15:36;1.80;99.90
13074;DHT22;6603;47.066;15.396;2023-02-15T03:18:27;1.80;99.90
13074;DHT22;6603;47.066;15.396;2023-02-15T03:20:55;1.70;99.90
13074;DHT22;6603;47.066;15.396;2023-02-15T03:23:25;1.60;99.90
13074;DHT22;6603;47.066;15.396;2023-02-15T03:26:00;1.70;99.90
13074;DHT22;6603;47.066;15.396;2023-02-15T03:28:35;1.70;99.90
13074;DHT22;6603;47.066;15.396;2023-02-15T03:31:05;1.70;99.90
13074;DHT22;6603;47.066;15.396;2023-02-15T03:33:33;1.60;99.90
13074;DHT22;6603;47.066;15.396;2023-02-15T03:36:07;1.50;99.90
13074;DHT22;6603;47.066;15.396;2023-02-15T03:38:50;1.70;99.90
13074;DHT22;6603;47.066;15.396;2023-02-15T03:41:19;1.70;99.90
13074;DHT22;6603;47.066;15.396;2023-02-15T03:43:49;1.80;99.90
13074;DHT22;6603;47.066;15.396;2023-02-15T04:45:03;1.80;99.90
13074;DHT22;6603;47.066;15.396;2023-02-15T04:47:28;1.80;99.90
13074;DHT22;6603;47.066;15.396;2023-02-15T04:49:54;1.90;99.90
13074;DHT22;6603;47.066;15.396;2023-02-15T04:52:20;1.90;99.90
13074;DHT22;6603;47.066;15.396;2023-02-15T04:54:46;1.90;99.90
13074;DHT22;6603;47.066;15.396;2023-02-15T04:57:13;1.80;99.90
13074;DHT22;6603;47.066;15.396;2023-02-15T04:59:39;1.90;99.90
13074;DHT22;6603;47.066;15.396;2023-02-15T05:02:05;1.80;99.90
13074;DHT22;6603;47.066;15.396;2023-02-15T05:04:31;1.80;99.90
13074;DHT22;6603;47.066;15.396;2023-02-15T05:06:56;1.80;99.90
13074;DHT22;6603;47.066;15.396;2023-02-15T05:09:22;1.80;99.90
13074;DHT22;6603;47.066;15.396;2023-02-15T05:11:48;1.90;99.90
13074;DHT22;6603;47.066;15.396;2023-02-15T05:14:14;1.90;99.90
13074;DHT22;6603;47.066;15.396;2023-02-15T05:16:40;1.90;99.90
13074;DHT22;6603;47.066;15.396;2023-02-15T05:19:06;1.90;99.90
13074;DHT22;6603;47.066;15.396;2023-02-15T05:21:33;1.90;99.90
13074;DHT22;6603;47.066;15.396;2023-02-15T05:23:59;1.90;99.90
13074;DHT22;6603;47.066;15.396;2023-02-15T05:26:25;1.90;99.90
13074;DHT22;6603;47.066;15.396;2023-02-15T05:29:10;1.90;99.90
13074;DHT22;6603;47.066;15.396;2023-02-15T05:31:37;1.90;99.90
13074;DHT22;6603;47.066;15.396;2023-02-15T05:34:03;1.90;99.90
13074;DHT22;6603;47.066;15.396;2023-02-15T05:36:29;1.90;99.90
13074;DHT22;6603;47.066;15.396;2023-02-15T05:38:55;1.90;99.90
13074;DHT22;6603;47.066;15.396;2023-02-15T05:41:21;1.90;99.90
13074;DHT22;6603;47.066;15.396;2023-02-15T05:43:47;1.90;99.90
13074;DHT22;6603;47.066;15.396;2023-02-15T05:46:13;1.80;99.90
13074;DHT22;6603;47.066;15.396;2023-02-15T05:48:39;1.80;99.90
13074;DHT22;6603;47.066;15.396;2023-02-15T05:51:11;1.80;99.90
13074;DHT22;6603;47.066;15.396;2023-02-15T05:53:41;1.90;99.90
13074;DHT22;6603;47.066;15.396;2023-02-15T05:56:09;1.80;99.90
13074;DHT22;6603;47.066;15.396;2023-02-15T05:58:38;1.60;99.90
13074;DHT22;6603;47.066;15.396;2023-02-15T06:01:10;1.70;99.90
13074;DHT22;6603;47.066;15.396;2023-02-15T06:03:36;1.70;99.90
13074;DHT22;6603;47.066;15.396;2023-02-15T06:06:02;1.70;99.90
13074;DHT22;6603;47.066;15.396;2023-02-15T06:08:34;1.70;99.90
13074;DHT22;6603;47.066;15.396;2023-02-15T06:11:00;1.60;99.90
13074;DHT22;6603;47.066;15.396;2023-02-15T06:13:26;1.60;99.90
13074;DHT22;6603;47.066;15.396;2023-02-15T06:15:52;1.60;99.90
13074;DHT22;6603;47.066;15.396;2023-02-15T06:18:18;1.60;99.90
13074;DHT22;6603;47.066;15.396;2023-02-15T06:20:48;1.70;99.90
13074;DHT22;6603;47.066;15.396;2023-02-15T06:23:14;1.70;99.90
13074;DHT22;6603;47.066;15.396;2023-02-15T06:25:40;1.70;99.90
13074;DHT22;6603;47.066;15.396;2023-02-15T06:28:06;1.70;99.90
13074;DHT22;6603;47.066;15.396;2023-02-15T06:30:32;1.60;99.90
13074;DHT22;6603;47.066;15.396;2023-02-15T06:32:57;1.60;99.90
13074;DHT22;6603;47.066;15.396;2023-02-15T06:35:23;1.70;99.90
13074;DHT22;6603;47.066;15.396;2023-02-15T06:37:49;1.70;99.90
13074;DHT22;6603;47.066;15.396;2023-02-15T06:40:15;1.80;99.90
13074;DHT22;6603;47.066;15.396;2023-02-15T06:42:42;1.80;99.90
13074;DHT22;6603;47.066;15.396;2023-02-15T06:45:08;1.80;99.90
13074;DHT22;6603;47.066;15.396;2023-02-15T06:47:35;1.90;99.90
13074;DHT22;6603;47.066;15.396;2023-02-15T06:50:01;1.90;99.90
13074;DHT22;6603;47.066;15.396;2023-02-15T06:52:27;1.90;99.90
13074;DHT22;6603;47.066;15.396;2023-02-15T06:54:53;1.90;99.90
13074;DHT22;6603;47.066;15.396;2023-02-15T06:57:19;1.90;99.90
13074;DHT22;6603;47.066;15.396;2023-02-15T06:59:45;1.90;99.90
13074;DHT22;6603;47.066;15.396;2023-02-15T07:02:12;2.00;99.90
13074;DHT22;6603;47.066;15.396;2023-02-15T07:04:38;2.00;99.90
13074;DHT22;6603;47.066;15.396;2023-02-15T07:07:03;2.10;99.90
13074;DHT22;6603;47.066;15.396;2023-02-15T07:09:29;2.20;99.90
13074;DHT22;6603;47.066;15.396;2023-02-15T07:11:55;2.30;99.90
13074;DHT22;6603;47.066;15.396;2023-02-15T07:14:39;2.30;99.90
13074;DHT22;6603;47.066;15.396;2023-02-15T07:17:06;2.30;99.90
13074;DHT22;6603;47.066;15.396;2023-02-15T07:19:32;2.30;99.90
13074;DHT22;6603;47.066;15.396;2023-02-15T07:21:58;2.40;93.20
13074;DHT22;6603;47.066;15.396;2023-02-15T07:24:24;2.40;98.10
13074;DHT22;6603;47.066;15.396;2023-02-15T07:26:50;2.40;97.40
13074;DHT22;6603;47.066;15.396;2023-02-15T07:29:15;2.40;79.60
13074;DHT22;6603;47.066;15.396;2023-02-15T07:31:41;2.50;55.40
13074;DHT22;6603;47.066;15.396;2023-02-15T07:34:11;2.50;50.10
13074;DHT22;6603;47.066;15.396;2023-02-15T07:36:37;2.50;53.50
13074;DHT22;6603;47.066;15.396;2023-02-15T07:39:03;2.60;53.20
13074;DHT22;6603;47.066;15.396;2023-02-15T07:41:29;2.60;69.30
13074;DHT22;6603;47.066;15.396;2023-02-15T07:43:54;2.60;55.70
13074;DHT22;6603;47.066;15.396;2023-02-15T07:46:21;2.60;67.20
13074;DHT22;6603;47.066;15.396;2023-02-15T07:48:47;2.70;65.50
13074;DHT22;6603;47.066;15.396;2023-02-15T07:51:14;2.70;33.90
13074;DHT22;6603;47.066;15.396;2023-02-15T07:53:41;2.80;27.10
13074;DHT22;6603;47.066;15.396;2023-02-15T07:56:10;2.80;30.40
13074;DHT22;6603;47.066;15.396;2023-02-15T07:58:37;2.90;23.70
13074;DHT22;6603;47.066;15.396;2023-02-15T08:01:29;2.90;1.00
13074;DHT22;6603;47.066;15.396;2023-02-15T08:03:56;3.00;11.30
13074;DHT22;6603;47.066;15.396;2023-02-15T08:06:25;3.00;1.00
13074;DHT22;6603;47.066;15.396;2023-02-15T08:08:51;3.00;7.90
13074;DHT22;6603;47.066;15.396;2023-02-15T08:11:41;3.00;1.00
13074;DHT22;6603;47.066;15.396;2023-02-15T08:14:13;3.00;11.40
13074;DHT22;6603;47.066;15.396;2023-02-15T08:16:47;3.20;1.00
13074;DHT22;6603;47.066;15.396;2023-02-15T08:19:15;3.20;1.00
13074;DHT22;6603;47.066;15.396;2023-02-15T08:21:46;3.40;1.00
13074;DHT22;6603;47.066;15.396;2023-02-15T08:24:15;3.40;1.00
13074;DHT22;6603;47.066;15.396;2023-02-15T08:26:42;3.50;1.00
13074;DHT22;6603;47.066;15.396;2023-02-15T08:29:10;3.50;1.00
13074;DHT22;6603;47.066;15.396;2023-02-15T08:31:37;3.60;1.00
13074;DHT22;6603;47.066;15.396;2023-02-15T08:34:04;3.80;1.00
13074;DHT22;6603;47.066;15.396;2023-02-15T08:36:31;3.70;1.00
13074;DHT22;6603;47.066;15.396;2023-02-15T08:38:59;3.70;1.00
13074;DHT22;6603;47.066;15.396;2023-02-15T08:41:27;3.70;1.00
13074;DHT22;6603;47.066;15.396;2023-02-15T08:43:56;3.60;1.00
13074;DHT22;6603;47.066;15.396;2023-02-15T08:46:25;3.50;1.00
13074;DHT22;6603;47.066;15.396;2023-02-15T08:48:51;3.50;1.00
13074;DHT22;6603;47.066;15.396;2023-02-15T08:51:19;3.20;1.00
13074;DHT22;6603;47.066;15.396;2023-02-15T08:53:48;3.00;1.00
13074;DHT22;6603;47.066;15.396;2023-02-15T08:56:15;3.10;1.00
13074;DHT22;6603;47.066;15.396;2023-02-15T08:58:42;3.10;1.00
13074;DHT22;6603;47.066;15.396;2023-02-15T09:01:12;3.10;1.00
13074;DHT22;6603;47.066;15.396;2023-02-15T09:03:39;3.10;1.00
13074;DHT22;6603;47.066;15.396;2023-02-15T09:06:06;3.20;1.00
13074;DHT22;6603;47.066;15.396;2023-02-15T09:08:32;3.30;1.00
13074;DHT22;6603;47.066;15.396;2023-02-15T09:11:09;3.30;1.00
13074;DHT22;6603;47.066;15.396;2023-02-15T09:13:37;3.30;1.00
13074;DHT22;6603;47.066;15.396;2023-02-15T09:16:06;3.30;1.00
13074;DHT22;6603;47.066;15.396;2023-02-15T09:18:35;3.40;1.00
13074;DHT22;6603;47.066;15.396;2023-02-15T09:21:26;3.40;1.00
13074;DHT22;6603;47.066;15.396;2023-02-15T09:23:56;3.30;1.00
13074;DHT22;6603;47.066;15.396;2023-02-15T09:26:24;3.40;1.00
13074;DHT22;6603;47.066;15.396;2023-02-15T09:28:55;3.50;1.00
13074;DHT22;6603;47.066;15.396;2023-02-15T09:31:24;3.60;1.00
13074;DHT22;6603;47.066;15.396;2023-02-15T09:33:50;3.60;1.00
13074;DHT22;6603;47.066;15.396;2023-02-15T09:38:46;3.50;1.00
13074;DHT22;6603;47.066;15.396;2023-02-15T09:47:22;3.80;1.00
13074;DHT22;6603;47.066;15.396;2023-02-15T09:58:37;3.60;1.00
13074;DHT22;6603;47.066;15.396;2023-02-15T10:17:45;4.00;1.00
13074;DHT22;6603;47.066;15.396;2023-02-15T10:31:50;5.00;1.00
13074;DHT22;6603;47.066;15.396;2023-02-15T10:34:18;5.00;1.00
13074;DHT22;6603;47.066;15.396;2023-02-15T10:50:30;5.30;1.00
13074;DHT22;6603;47.066;15.396;2023-02-15T10:53:20;5.30;99.90
13074;DHT22;6603;47.066;15.396;2023-02-15T10:55:56;5.00;1.00
13074;DHT22;6603;47.066;15.396;2023-02-15T11:01:34;5.40;1.00
13074;DHT22;6603;47.066;15.396;2023-02-15T11:04:32;5.50;1.00
13074;DHT22;6603;47.066;15.396;2023-02-15T11:07:43;5.40;99.90
13074;DHT22;6603;47.066;15.396;2023-02-15T11:10:40;5.30;1.00
13074;DHT22;6603;47.066;15.396;2023-02-15T11:13:16;5.30;1.00
13074;DHT22;6603;47.066;15.396;2023-02-15T11:15:51;5.10;1.00
13074;DHT22;6603;47.066;15.396;2023-02-15T11:23:28;5.40;99.90
13074;DHT22;6603;47.066;15.396;2023-02-15T11:26:00;5.30;99.90
13074;DHT22;6603;47.066;15.396;2023-02-15T11:28:37;5.40;99.90
13074;DHT22;6603;47.066;15.396;2023-02-15T11:31:23;5.60;75.50
13074;DHT22;6603;47.066;15.396;2023-02-15T11:36:46;5.30;99.90
13074;DHT22;6603;47.066;15.396;2023-02-15T11:39:16;5.50;1.00
13074;DHT22;6603;47.066;15.396;2023-02-15T11:41:49;5.60;1.00
13074;DHT22;6603;47.066;15.396;2023-02-15T11:44:26;5.50;1.00
13074;DHT22;6603;47.066;15.396;2023-02-15T11:46:53;5.80;1.00
13074;DHT22;6603;47.066;15.396;2023-02-15T11:49:31;5.80;1.00
13074;DHT22;6603;47.066;15.396;2023-02-15T11:51:58;6.00;13.80
13074;DHT22;6603;47.066;15.396;2023-02-15T11:54:34;6.10;99.90
13074;DHT22;6603;47.066;15.396;2023-02-15T11:57:36;6.10;1.00
13074;DHT22;6603;47.066;15.396;2023-02-15T12:00:14;5.90;1.00
13074;DHT22;6603;47.066;15.396;2023-02-15T12:02:46;6.40;94.90
13074;DHT22;6603;47.066;15.396;2023-02-15T12:05:18;6.40;1.00
13074;DHT22;6603;47.066;15.396;2023-02-15T12:08:01;6.20;99.90
13074;DHT22;6603;47.066;15.396;2023-02-15T12:14:06;6.30;1.00
13074;DHT22;6603;47.066;15.396;2023-02-15T12:16:41;6.50;1.00
13074;DHT22;6603;47.066;15.396;2023-02-15T12:19:33;6.30;1.00
13074;DHT22;6603;47.066;15.396;2023-02-15T12:22:02;6.10;1.00
13074;DHT22;6603;47.066;15.396;2023-02-15T12:24:32;6.20;1.00
13074;DHT22;6603;47.066;15.396;2023-02-15T12:27:28;6.40;1.00
13074;DHT22;6603;47.066;15.396;2023-02-15T12:30:07;6.50;99.90
13074;DHT22;6603;47.066;15.396;2023-02-15T12:32:52;6.40;1.00
13074;DHT22;6603;47.066;15.396;2023-02-15T12:35:33;6.40;21.20
13074;DHT22;6603;47.066;15.396;2023-02-15T12:38:19;6.40;99.90
13074;DHT22;6603;47.066;15.396;2023-02-15T12:41:23;6.30;99.90
13074;DHT22;6603;47.066;15.396;2023-02-15T12:44:16;6.60;99.90
13074;DHT22;6603;47.066;15.396;2023-02-15T12:49:37;6.80;1.00
13074;DHT22;6603;47.066;15.396;2023-02-15T12:52:10;6.60;1.00
13074;DHT22;6603;47.066;15.396;2023-02-15T12:54:49;6.50;1.00
13074;DHT22;6603;47.066;15.396;2023-02-15T12:57:36;6.50;99.90
13074;DHT22;6603;47.066;15.396;2023-02-15T13:00:24;6.70;1.00
13074;DHT22;6603;47.066;15.396;2023-02-15T13:02:58;6.50;1.00
13074;DHT22;6603;47.066;15.396;2023-02-15T13:08:03;6.60;1.00
13074;DHT22;6603;47.066;15.396;2023-02-15T13:10:58;6.70;1.00
13074;DHT22;6603;47.066;15.396;2023-02-15T13:13:28;6.80;1.00
13074;DHT22;6603;47.066;15.396;2023-02-15T13:16:19;6.70;99.90
13074;DHT22;6603;47.066;15.396;2023-02-15T13:18:45;6.80;1.00
13074;DHT22;6603;47.066;15.396;2023-02-15T13:21:21;7.00;37.30
13074;DHT22;6603;47.066;15.396;2023-02-15T13:23:56;6.70;1.00
13074;DHT22;6603;47.066;15.396;2023-02-15T13:26:26;6.60;1.00
13074;DHT22;6603;47.066;15.396;2023-02-15T13:28:58;6.50;71.30
13074;DHT22;6603;47.066;15.396;2023-02-15T13:31:27;6.70;99.90
13074;DHT22;6603;47.066;15.396;2023-02-15T13:33:58;6.80;26.40
13074;DHT22;6603;47.066;15.396;2023-02-15T13:40:15;6.70;99.90
13074;DHT22;6603;47.066;15.396;2023-02-15T13:44:57;6.70;99.90
13074;DHT22;6603;47.066;15.396;2023-02-15T13:47:45;6.90;99.90
13074;DHT22;6603;47.066;15.396;2023-02-15T13:50:39;6.90;35.70
13074;DHT22;6603;47.066;15.396;2023-02-15T13:55:59;7.00;1.00
13074;DHT22;6603;47.066;15.396;2023-02-15T14:01:17;7.00;99.90
13074;DHT22;6603;47.066;15.396;2023-02-15T14:26:17;6.80;1.00
13074;DHT22;6603;47.066;15.396;2023-02-15T14:31:48;6.80;1.00
13074;DHT22;6603;47.066;15.396;2023-02-15T14:34:24;6.50;87.00
13074;DHT22;6603;47.066;15.396;2023-02-15T14:36:53;6.40;12.50
13074;DHT22;6603;47.066;15.396;2023-02-15T14:39:55;6.20;1.00
13074;DHT22;6603;47.066;15.396;2023-02-15T14:48:48;5.90;1.00
13074;DHT22;6603;47.066;15.396;2023-02-15T15:02:24;5.50;99.90
13074;DHT22;6603;47.066;15.396;2023-02-15T15:05:18;5.60;1.00
13074;DHT22;6603;47.066;15.396;2023-02-15T15:07:52;5.50;1.00
13074;DHT22;6603;47.066;15.396;2023-02-15T15:12:49;5.40;1.00
13074;DHT22;6603;47.066;15.396;2023-02-15T15:20:49;5.20;1.00
13074;DHT22;6603;47.066;15.396;2023-02-15T15:25:54;4.90;1.00
13074;DHT22;6603;47.066;15.396;2023-02-15T15:42:49;4.30;1.00
13074;DHT22;6603;47.066;15.396;2023-02-15T15:48:33;4.20;1.00
13074;DHT22;6603;47.066;15.396;2023-02-15T15:51:28;4.10;1.00
13074;DHT22;6603;47.066;15.396;2023-02-15T15:53:53;3.80;1.00
13074;DHT22;6603;47.066;15.396;2023-02-15T15:56:23;3.70;1.00
13074;DHT22;6603;47.066;15.396;2023-02-15T15:58:54;3.50;1.00
13074;DHT22;6603;47.066;15.396;2023-02-15T16:01:30;3.50;7.60
13074;DHT22;6603;47.066;15.396;2023-02-15T16:03:58;3.40;5.00
13074;DHT22;6603;47.066;15.396;2023-02-15T16:06:28;3.30;18.70
13074;DHT22;6603;47.066;15.396;2023-02-15T16:08:55;3.30;28.90
13074;DHT22;6603;47.066;15.396;2023-02-15T16:11:27;3.20;33.80
13074;DHT22;6603;47.066;15.396;2023-02-15T16:13:55;3.00;1.00
13074;DHT22;6603;47.066;15.396;2023-02-15T16:16:26;2.90;52.30
13074;DHT22;6603;47.066;15.396;2023-02-15T16:18:55;2.80;53.30
13074;DHT22;6603;47.066;15.396;2023-02-15T16:21:35;2.60;38.30
13074;DHT22;6603;47.066;15.396;2023-02-15T16:24:21;2.60;18.40
13074;DHT22;6603;47.066;15.396;2023-02-15T16:29:37;2.20;59.60
13074;DHT22;6603;47.066;15.396;2023-02-15T16:32:23;2.20;99.90
13074;DHT22;6603;47.066;15.396;2023-02-15T16:34:52;2.10;99.90
13074;DHT22;6603;47.066;15.396;2023-02-15T16:37:21;2.10;99.90
13074;DHT22;6603;47.066;15.396;2023-02-15T16:39:49;2.00;99.90
13074;DHT22;6603;47.066;15.396;2023-02-15T16:42:17;2.00;99.90
13074;DHT22;6603;47.066;15.396;2023-02-15T16:45:23;1.70;80.90
13074;DHT22;6603;47.066;15.396;2023-02-15T16:47:44;1.70;99.90
13074;DHT22;6603;47.066;15.396;2023-02-15T16:52:57;1.60;99.90
13074;DHT22;6603;47.066;15.396;2023-02-15T16:55:26;1.60;99.90
13074;DHT22;6603;47.066;15.396;2023-02-15T16:57:59;1.50;99.90
13074;DHT22;6603;47.066;15.396;2023-02-15T17:00:32;1.40;99.90
13074;DHT22;6603;47.066;15.396;2023-02-15T17:05:49;1.20;99.90
13074;DHT22;6603;47.066;15.396;2023-02-15T17:08:19;1.10;99.90
13074;DHT22;6603;47.066;15.396;2023-02-15T17:11:22;1.00;99.90
13074;DHT22;6603;47.066;15.396;2023-02-15T17:16:44;1.00;99.90
13074;DHT22;6603;47.066;15.396;2023-02-15T17:19:44;1.00;99.90
13074;DHT22;6603;47.066;15.396;2023-02-15T17:22:26;1.00;99.90
13074;DHT22;6603;47.066;15.396;2023-02-15T17:25:01;1.00;99.90
13074;DHT22;6603;47.066;15.396;2023-02-15T17:27:30;0.90;99.90
13074;DHT22;6603;47.066;15.396;2023-02-15T17:30:12;0.80;99.90
13074;DHT22;6603;47.066;15.396;2023-02-15T17:33:01;0.70;99.90
13074;DHT22;6603;47.066;15.396;2023-02-15T17:35:30;0.60;99.90
13074;DHT22;6603;47.066;15.396;2023-02-15T17:38:10;0.60;99.90
13074;DHT22;6603;47.066;15.396;2023-02-15T17:40:40;0.60;99.90
13074;DHT22;6603;47.066;15.396;2023-02-15T17:43:06;0.60;99.90
13074;DHT22;6603;47.066;15.396;2023-02-15T17:45:35;0.60;99.90
13074;DHT22;6603;47.066;15.396;2023-02-15T17:48:03;0.60;99.90
13074;DHT22;6603;47.066;15.396;2023-02-15T17:50:30;0.40;99.90
13074;DHT22;6603;47.066;15.396;2023-02-15T17:52:56;0.20;99.90
13074;DHT22;6603;47.066;15.396;2023-02-15T17:55:24;0.30;99.90
13074;DHT22;6603;47.066;15.396;2023-02-15T17:58:15;0.30;99.90
13074;DHT22;6603;47.066;15.396;2023-02-15T18:00:46;0.40;99.90
13074;DHT22;6603;47.066;15.396;2023-02-15T18:03:49;0.40;99.90
13074;DHT22;6603;47.066;15.396;2023-02-15T18:06:35;0.50;99.90
13074;DHT22;6603;47.066;15.396;2023-02-15T18:09:21;0.40;99.90
13074;DHT22;6603;47.066;15.396;2023-02-15T18:12:21;0.30;99.90
13074;DHT22;6603;47.066;15.396;2023-02-15T18:14:48;0.30;99.90
13074;DHT22;6603;47.066;15.396;2023-02-15T18:17:15;0.20;99.90
13074;DHT22;6603;47.066;15.396;2023-02-15T18:19:45;0.00;99.90
13074;DHT22;6603;47.066;15.396;2023-02-15T18:22:14;-0.10;99.90
13074;DHT22;6603;47.066;15.396;2023-02-15T18:24:42;-0.10;99.90
13074;DHT22;6603;47.066;15.396;2023-02-15T18:27:11;-0.20;99.90
13074;DHT22;6603;47.066;15.396;2023-02-15T18:29:38;-0.20;99.90
13074;DHT22;6603;47.066;15.396;2023-02-15T18:32:08;-0.10;99.90
13074;DHT22;6603;47.066;15.396;2023-02-15T18:34:37;-0.20;99.90
13074;DHT22;6603;47.066;15.396;2023-02-15T18:37:06;-0.40;99.90
13074;DHT22;6603;47.066;15.396;2023-02-15T18:39:37;-0.30;99.90
13074;DHT22;6603;47.066;15.396;2023-02-15T18:42:06;-0.10;99.90
13074;DHT22;6603;47.066;15.396;2023-02-15T18:44:32;-0.30;99.90
13074;DHT22;6603;47.066;15.396;2023-02-15T18:46:58;-0.30;99.90
13074;DHT22;6603;47.066;15.396;2023-02-15T18:49:23;-0.50;99.90
13074;DHT22;6603;47.066;15.396;2023-02-15T18:51:49;-0.60;99.90
13074;DHT22;6603;47.066;15.396;2023-02-15T18:54:19;-0.50;99.90
13074;DHT22;6603;47.066;15.396;2023-02-15T18:56:51;-0.50;99.90
13074;DHT22;6603;47.066;15.396;2023-02-15T18:59:18;-0.40;99.90
13074;DHT22;6603;47.066;15.396;2023-02-15T19:01:44;-0.30;99.90
13074;DHT22;6603;47.066;15.396;2023-02-15T19:04:10;-0.30;99.90
13074;DHT22;6603;47.066;15.396;2023-02-15T19:06:36;-0.30;99.90
13074;DHT22;6603;47.066;15.396;2023-02-15T19:09:04;-0.30;99.90
13074;DHT22;6603;47.066;15.396;2023-02-15T19:11:30;-0.30;99.90
13074;DHT22;6603;47.066;15.396;2023-02-15T19:13:56;-0.40;99.90
13074;DHT22;6603;47.066;15.396;2023-02-15T19:16:32;-0.50;99.90
13074;DHT22;6603;47.066;15.396;2023-02-15T19:18:59;-0.40;99.90
13074;DHT22;6603;47.066;15.396;2023-02-15T19:21:27;-0.60;99.90
13074;DHT22;6603;47.066;15.396;2023-02-15T19:24:01;-0.70;99.90
13074;DHT22;6603;47.066;15.396;2023-02-15T19:26:29;-0.70;99.90
13074;DHT22;6603;47.066;15.396;2023-02-15T19:29:00;-0.70;99.90
13074;DHT22;6603;47.066;15.396;2023-02-15T19:31:27;-0.80;99.90
13074;DHT22;6603;47.066;15.396;2023-02-15T19:33:53;-0.80;99.90
13074;DHT22;6603;47.066;15.396;2023-02-15T19:36:19;-0.70;99.90
13074;DHT22;6603;47.066;15.396;2023-02-15T19:38:50;-0.80;99.90
13074;DHT22;6603;47.066;15.396;2023-02-15T19:41:24;-0.80;99.90
13074;DHT22;6603;47.066;15.396;2023-02-15T19:43:52;-0.60;99.90
13074;DHT22;6603;47.066;15.396;2023-02-15T19:46:21;-0.80;99.90
13074;DHT22;6603;47.066;15.396;2023-02-15T19:48:49;-0.90;99.90
13074;DHT22;6603;47.066;15.396;2023-02-15T19:51:15;-1.00;99.90
13074;DHT22;6603;47.066;15.396;2023-02-15T19:53:41;-0.80;99.90
13074;DHT22;6603;47.066;15.396;2023-02-15T19:56:21;-0.90;99.90
13074;DHT22;6603;47.066;15.396;2023-02-15T19:58:51;-0.90;99.90
13074;DHT22;6603;47.066;15.396;2023-02-15T20:01:19;-0.80;99.90
13074;DHT22;6603;47.066;15.396;2023-02-15T20:03:47;-0.80;99.90
13074;DHT22;6603;47.066;15.396;2023-02-15T20:06:16;-1.00;99.90
13074;DHT22;6603;47.066;15.396;2023-02-15T20:08:43;-1.10;99.90
13074;DHT22;6603;47.066;15.396;2023-02-15T20:11:11;-1.20;99.90
13074;DHT22;6603;47.066;15.396;2023-02-15T20:13:38;-0.90;99.90
13074;DHT22;6603;47.066;15.396;2023-02-15T20:16:05;-0.90;99.90
13074;DHT22;6603;47.066;15.396;2023-02-15T20:18:33;-0.80;99.90
13074;DHT22;6603;47.066;15.396;2023-02-15T20:21:00;-0.70;99.90
13074;DHT22;6603;47.066;15.396;2023-02-15T20:23:29;-0.80;99.90
13074;DHT22;6603;47.066;15.396;2023-02-15T20:26:01;-1.00;99.90
13074;DHT22;6603;47.066;15.396;2023-02-15T20:28:29;-1.00;99.90
13074;DHT22;6603;47.066;15.396;2023-02-15T20:30:55;-1.00;99.90
13074;DHT22;6603;47.066;15.396;2023-02-15T20:33:22;-1.10;99.90
13074;DHT22;6603;47.066;15.396;2023-02-15T20:35:48;-1.30;99.90